Historique des mesures à Cassis (13260), France
Quotidien Résumé Décembre 17, 2017 Unités:  Métrique    US   Métrique/US
« Précédent (Jour)
Suivant (Jour) »
Quotidien Hebdomadaire Mensuel Annuel Période au choix
  Maximum: Minimum: Moyenne:
Température: TemperatureC °C 4.7 °C 6 °C
Point de rosée: DewpointC °C -2.9 °C -1.5 °C
Humidité: Humidity % 47 % 55 %
Vitesse du vent: 0 km/h 0 km/h 12.9 km/h
Rafales: 0 km/h - -
Vent:- - WSW
Pression: PressurehPa hPa 1014.4 hPa -
Précipitations: 0.0 mm    
Historical Graphs
 
 
Mesures pour : Décembre 17, 2017
Heure Temperature Point de rosée Pression Vent Vitesse du vent Rafales Humidité Pluie (par heure) Conditions
TemperatureC °C DewpointC °C PressurehPa hPa Calm     Humidity % HourlyPrecipMM mm SoftwareType W/m2
00:10 5.4 °C -0.4 °C 1014.4 hPa NNE 8.9 km/h 8.9 km/h 66 % 0.0 mm open2300-1.11 W/m2
01:10 5.8 °C -0.9 °C 1014.4 hPa Calm     62 % 0.0 mm open2300-1.11 W/m2
02:10 5.4 °C -0.7 °C 1014.8 hPa NW 19.6 km/h 19.6 km/h 65 % 0.0 mm open2300-1.11 W/m2
03:10 5.3 °C -0.8 °C 1015.8 hPa Calm   20.9 km/h 65 % 0.0 mm open2300-1.11 W/m2
04:11 5.3 °C -0.8 °C 1015.8 hPa WNW 35.2 km/h 35.2 km/h 65 % 0.0 mm open2300-1.11 W/m2
05:10 5.0 °C -0.8 °C 1015.8 hPa North 9.3 km/h 10.9 km/h 66 % 0.0 mm open2300-1.11 W/m2
06:10 4.8 °C -1.1 °C 1016.5 hPa NNW 30.7 km/h 30.7 km/h 66 % 0.0 mm open2300-1.11 W/m2
07:10 4.7 °C -1.6 °C 1016.8 hPa Calm   32.3 km/h 64 % 0.0 mm open2300-1.11 W/m2
08:10 4.9 °C -2.7 °C 1017.5 hPa North 31.4 km/h 51 km/h 58 % 0.0 mm open2300-1.11 W/m2
09:10 5.2 °C -2.9 °C 1018.2 hPa NW 28.5 km/h 28.5 km/h 56 % 0.0 mm open2300-1.11 W/m2
10:10 5.7 °C -2.7 °C 1018.8 hPa NNW 29 km/h 34.1 km/h 55 % 0.0 mm open2300-1.11 W/m2
11:10 7.0 °C -2.4 °C 1020.2 hPa Calm   2.3 km/h 51 % 0.0 mm open2300-1.11 W/m2
12:10 8.2 °C -2.5 °C 1019.5 hPa NW 36.5 km/h 36.5 km/h 47 % 0.0 mm open2300-1.11 W/m2
13:10 8.8 °C -1.7 °C 1018.5 hPa NNW 13.2 km/h 17.4 km/h 48 % 0.0 mm open2300-1.11 W/m2
14:10 8.6 °C -1.0 °C 1018.5 hPa Calm   54.4 km/h 51 % 0.0 mm open2300-1.11 W/m2
15:10 8.4 °C -0.7 °C 1018.5 hPa NW 15.6 km/h 19.6 km/h 53 % 0.0 mm open2300-1.11 W/m2
16:10 8.1 °C -0.7 °C 1019.5 hPa NW 15 km/h 17.9 km/h 54 % 0.0 mm open2300-1.11 W/m2
17:10 7.4 °C -0.8 °C 1020.2 hPa WNW 9.3 km/h 9.3 km/h 56 % 0.0 mm open2300-1.11 W/m2
18:10 6.9 °C -1.6 °C 1020.9 hPa Calm   36 km/h 55 % 0.0 mm open2300-1.11 W/m2
19:10 6.4 °C -1.6 °C 1020.9 hPa NNW 6.4 km/h 38.8 km/h 57 % 0.0 mm open2300-1.11 W/m2
20:11 6.3 °C -1.9 °C 1021.2 hPa NW 33.6 km/h 33.6 km/h 56 % 0.0 mm open2300-1.11 W/m2
21:10 5.9 °C -2.3 °C 1021.6 hPa Calm   5.6 km/h 56 % 0.0 mm open2300-1.11 W/m2
22:10 5.7 °C -2.2 °C 1022.2 hPa Calm   30.7 km/h 57 % 0.0 mm open2300-1.11 W/m2
23:10 5.4 °C -2.5 °C 1022.6 hPa Calm     57 % 0.0 mm open2300-1.11 W/m2
Observations météo à CASSIS
WU-History script by Weather Underground - 1 mb